createdAt,value
2022-12-17T00:02:34.767Z,101680.09
2022-12-17T00:05:20.223Z,101684.00
2022-12-17T00:08:05.458Z,101686.09
2022-12-17T00:10:51.039Z,101694.19
2022-12-17T00:13:38.342Z,101689.53
2022-12-17T00:16:25.017Z,101690.56
2022-12-17T00:19:11.902Z,101697.06
2022-12-17T00:21:57.131Z,101692.53
2022-12-17T00:24:42.409Z,101699.28
2022-12-17T00:27:39.383Z,101701.38
2022-12-17T00:30:25.789Z,101709.34
2022-12-17T00:33:11.211Z,101711.28
2022-12-17T00:35:58.009Z,101713.22
2022-12-17T00:38:43.047Z,101713.81
2022-12-17T00:41:28.327Z,101713.34
2022-12-17T00:44:14.247Z,101719.22
2022-12-17T00:46:59.417Z,101716.69
2022-12-17T00:49:44.562Z,101721.59
2022-12-17T00:52:31.273Z,101717.56
2022-12-17T00:55:16.858Z,101726.25
2022-12-17T00:58:10.825Z,101729.53
2022-12-17T01:00:56.385Z,101736.28
2022-12-17T01:03:55.149Z,101738.25
2022-12-17T01:06:44.035Z,101738.56
2022-12-17T01:09:30.947Z,101742.75
2022-12-17T01:12:16.370Z,101744.25
2022-12-17T01:15:01.771Z,101752.63
2022-12-17T01:17:47.243Z,101753.53
2022-12-17T01:20:32.886Z,101753.38
2022-12-17T01:23:18.144Z,101758.19
2022-12-17T01:26:12.819Z,101757.41
2022-12-17T01:28:58.535Z,101759.25
2022-12-17T01:31:44.261Z,101757.31
2022-12-17T01:34:30.021Z,101762.84
2022-12-17T01:37:15.423Z,101766.44
2022-12-17T01:40:00.792Z,101763.28
2022-12-17T01:42:56.577Z,101759.25
2022-12-17T01:45:41.695Z,101767.03
2022-12-17T01:48:32.136Z,101767.31
2022-12-17T01:51:14.386Z,101765.53
2022-12-17T01:54:05.079Z,101770.31
2022-12-17T01:56:50.901Z,101771.53
2022-12-17T01:59:45.876Z,101765.50
2022-12-17T02:02:31.468Z,101764.19
2022-12-17T02:05:17.287Z,101773.94
2022-12-17T02:08:13.465Z,101774.38
2022-12-17T02:11:05.007Z,101775.88
2022-12-17T02:13:55.691Z,101779.63
2022-12-17T02:16:49.409Z,101779.03
2022-12-17T02:19:49.232Z,101782.16
2022-12-17T02:22:46.364Z,101776.75
2022-12-17T02:25:40.851Z,101778.41
2022-12-17T02:28:28.425Z,101769.56
2022-12-17T02:31:14.886Z,101772.59
2022-12-17T02:34:00.531Z,101774.38
2022-12-17T02:36:46.310Z,101775.16
2022-12-17T02:39:31.734Z,101781.41
2022-12-17T02:42:17.777Z,101781.56
2022-12-17T02:45:05.124Z,101785.34
2022-12-17T02:47:50.545Z,101788.31
2022-12-17T02:50:36.410Z,101789.53
2022-12-17T02:53:22.907Z,101794.91
2022-12-17T02:56:07.529Z,101798.50
2022-12-17T02:58:52.735Z,101802.56
2022-12-17T03:01:39.874Z,101805.41
2022-12-17T03:04:25.384Z,101803.00
2022-12-17T03:07:12.678Z,101804.50
2022-12-17T03:09:58.328Z,101807.63
2022-12-17T03:12:43.533Z,101810.50
2022-12-17T03:15:43.441Z,101816.31
2022-12-17T03:18:30.135Z,101816.78
2022-12-17T03:21:15.117Z,101820.69
2022-12-17T03:24:05.831Z,101822.34
2022-12-17T03:26:51.390Z,101820.22
2022-12-17T03:29:51.079Z,101818.25
2022-12-17T03:32:36.642Z,101830.72
2022-12-17T03:35:23.606Z,101823.09
2022-12-17T03:38:09.146Z,101834.16
2022-12-17T03:40:54.438Z,101842.56
2022-12-17T03:43:39.780Z,101839.25
2022-12-17T03:46:25.614Z,101839.25
2022-12-17T03:49:11.071Z,101849.72
2022-12-17T03:51:57.713Z,101855.41
2022-12-17T03:54:42.929Z,101861.41
2022-12-17T03:57:28.260Z,101853.91
2022-12-17T04:00:15.292Z,101861.38
2022-12-17T04:03:00.518Z,101859.25
2022-12-17T04:05:46.223Z,101863.13
2022-12-17T04:08:33.134Z,101875.41
2022-12-17T04:11:20.677Z,101875.72
2022-12-17T04:14:05.934Z,101880.53
2022-12-17T04:16:51.387Z,101891.59
2022-12-17T04:19:36.515Z,101896.34
2022-12-17T04:22:21.883Z,101885.31
2022-12-17T04:25:08.510Z,101891.00
2022-12-17T04:27:53.885Z,101897.41
2022-12-17T04:30:39.231Z,101899.94
2022-12-17T04:33:24.575Z,101893.38
2022-12-17T04:36:09.819Z,101902.50
2022-12-17T04:38:55.176Z,101899.06
2022-12-17T04:41:41.946Z,101911.50
2022-12-17T04:44:26.472Z,101897.81
2022-12-17T04:47:16.978Z,101908.66
2022-12-17T04:50:02.394Z,101905.97
2022-12-17T04:52:47.839Z,101907.63
2022-12-17T04:55:33.009Z,101904.22
2022-12-17T04:58:22.492Z,101910.19
2022-12-17T05:01:10.549Z,101910.53
2022-12-17T05:03:56.091Z,101906.97
2022-12-17T05:06:41.538Z,101911.72
2022-12-17T05:09:26.665Z,101916.47
2022-12-17T05:12:11.945Z,101919.03
2022-12-17T05:14:59.006Z,101923.38
2022-12-17T05:17:44.430Z,101924.00
2022-12-17T05:20:29.848Z,101927.88
2022-12-17T05:23:15.337Z,101930.56
2022-12-17T05:26:00.581Z,101937.50
2022-12-17T05:28:45.944Z,101936.47
2022-12-17T05:31:32.875Z,101934.19
2022-12-17T05:34:19.227Z,101942.59
2022-12-17T05:37:04.557Z,101944.69
2022-12-17T05:39:49.900Z,101952.94
2022-12-17T05:42:35.391Z,101959.34
2022-12-17T05:45:21.036Z,101955.25
2022-12-17T05:48:12.928Z,101965.63
2022-12-17T05:50:58.436Z,101963.78
2022-12-17T05:53:43.926Z,101974.91
2022-12-17T05:56:29.215Z,101971.44
2022-12-17T05:59:14.601Z,101982.06
2022-12-17T06:01:59.975Z,101986.00
2022-12-17T06:04:47.012Z,101987.16
2022-12-17T06:07:37.863Z,101992.25
2022-12-17T06:10:23.899Z,101987.47
2022-12-17T06:13:14.637Z,101987.16
2022-12-17T06:15:59.916Z,102002.00
2022-12-17T06:18:45.657Z,101995.00
2022-12-17T06:21:32.593Z,101999.44
2022-12-17T06:24:17.783Z,102000.56
2022-12-17T06:27:03.107Z,102002.66
2022-12-17T06:29:48.263Z,102007.44
2022-12-17T06:32:33.788Z,102010.28
2022-12-17T06:35:18.744Z,102006.97
2022-12-17T06:38:05.417Z,102014.25
2022-12-17T06:40:50.902Z,102013.66
2022-12-17T06:43:36.513Z,102018.31
2022-12-17T06:46:22.053Z,102015.47
2022-12-17T06:49:07.711Z,102022.81
2022-12-17T06:51:53.155Z,102033.53
2022-12-17T06:54:40.849Z,102046.06
2022-12-17T06:57:25.974Z,102044.59
2022-12-17T07:00:11.306Z,102055.69
2022-12-17T07:02:56.911Z,102067.34
2022-12-17T07:05:42.080Z,102071.22
2022-12-17T07:08:27.558Z,102071.06
2022-12-17T07:11:14.432Z,102069.97
2022-12-17T07:13:59.804Z,102081.06
2022-12-17T07:16:45.309Z,102089.13
2022-12-17T07:19:30.793Z,102096.09
2022-12-17T07:22:16.197Z,102101.00
2022-12-17T07:25:01.840Z,102104.31
2022-12-17T07:27:48.531Z,102096.19
2022-12-17T07:30:36.727Z,102113.06
2022-12-17T07:33:24.857Z,102109.00
2022-12-17T07:36:11.722Z,102109.25
2022-12-17T07:38:57.025Z,102109.81
2022-12-17T07:41:42.388Z,102111.38
2022-12-17T07:44:29.416Z,102115.31
2022-12-17T07:47:14.937Z,102119.91
2022-12-17T07:50:00.260Z,102118.53
2022-12-17T07:52:45.936Z,102124.41
2022-12-17T07:55:31.023Z,102131.47
2022-12-17T07:58:17.588Z,102140.53
2022-12-17T08:01:04.400Z,102152.84
2022-12-17T08:03:52.071Z,102157.94
2022-12-17T08:06:37.952Z,102160.81
2022-12-17T08:09:23.637Z,102156.38
2022-12-17T08:12:09.033Z,102164.66
2022-12-17T08:14:54.888Z,102162.69
2022-12-17T08:17:41.753Z,102159.16
2022-12-17T08:20:28.859Z,102158.97
2022-12-17T08:23:19.991Z,102162.28
2022-12-17T08:26:05.284Z,102159.81
2022-12-17T08:28:52.404Z,102165.47
2022-12-17T08:31:38.331Z,102158.81
2022-12-17T08:34:25.430Z,102157.50
2022-12-17T08:37:11.192Z,102170.66
2022-12-17T08:39:56.633Z,102163.84
2022-12-17T08:42:42.044Z,102175.66
2022-12-17T08:45:28.359Z,102181.16
2022-12-17T08:48:21.339Z,102172.03
2022-12-17T08:51:08.347Z,102174.06
2022-12-17T08:53:54.197Z,102174.84
2022-12-17T08:56:39.769Z,102181.25
2022-12-17T08:59:25.001Z,102187.09
2022-12-17T09:02:10.672Z,102196.13
2022-12-17T09:04:56.426Z,102201.00
2022-12-17T09:07:42.931Z,102206.41
2022-12-17T09:10:28.279Z,102200.41
2022-12-17T09:13:13.750Z,102202.50
2022-12-17T09:15:59.033Z,102203.44
2022-12-17T09:18:45.074Z,102210.16
2022-12-17T09:21:30.309Z,102208.78
2022-12-17T09:24:16.850Z,102207.28
2022-12-17T09:27:02.273Z,102201.38
2022-12-17T09:29:49.826Z,102205.63
2022-12-17T09:32:35.162Z,102202.97
2022-12-17T09:35:20.518Z,102205.50
2022-12-17T09:38:11.107Z,102202.38
2022-12-17T09:40:59.297Z,102210.50
2022-12-17T09:43:50.629Z,102209.50
2022-12-17T09:46:41.956Z,102208.84
2022-12-17T09:49:36.667Z,102209.69
2022-12-17T09:52:44.145Z,102213.19
2022-12-17T09:55:39.893Z,102209.38
2022-12-17T09:58:37.137Z,102221.06
2022-12-17T10:01:23.928Z,102221.91
2022-12-17T10:04:09.663Z,102234.47
2022-12-17T10:06:56.191Z,102237.19
2022-12-17T10:09:42.553Z,102229.75
2022-12-17T10:12:33.753Z,102230.69
2022-12-17T10:15:21.032Z,102238.69
2022-12-17T10:18:08.366Z,102237.34
2022-12-17T10:20:59.417Z,102236.81
2022-12-17T10:23:47.037Z,102247.13
2022-12-17T10:26:36.410Z,102251.91
2022-12-17T10:29:23.812Z,102251.91
2022-12-17T10:32:10.721Z,102250.72
2022-12-17T10:35:03.310Z,102254.97
2022-12-17T10:37:52.951Z,102250.28
2022-12-17T10:40:44.423Z,102247.25
2022-12-17T10:43:48.207Z,102253.25
2022-12-17T10:46:45.098Z,102262.47
2022-12-17T10:49:35.241Z,102251.16
2022-12-17T10:52:35.925Z,102254.34
2022-12-17T10:55:23.978Z,102255.31
2022-12-17T10:58:12.793Z,102257.28
2022-12-17T11:01:02.957Z,102263.38
2022-12-17T11:04:04.198Z,102262.94
2022-12-17T11:06:53.838Z,102256.19
2022-12-17T11:09:53.581Z,102266.00
2022-12-17T11:12:44.824Z,102271.34
2022-12-17T11:15:38.322Z,102270.03
2022-12-17T11:18:25.582Z,102277.03
2022-12-17T11:21:25.654Z,102280.91
2022-12-17T11:24:22.057Z,102276.44
2022-12-17T11:27:11.781Z,102277.16
2022-12-17T11:29:57.280Z,102280.31
2022-12-17T11:32:56.784Z,102284.00
2022-12-17T11:35:48.939Z,102288.97
2022-12-17T11:38:43.375Z,102297.09
2022-12-17T11:41:49.838Z,102294.09
2022-12-17T11:44:49.427Z,102298.34
2022-12-17T11:47:45.886Z,102296.09
2022-12-17T11:50:41.270Z,102288.09
2022-12-17T11:53:49.062Z,102298.53
2022-12-17T11:56:43.748Z,102300.06
2022-12-17T11:59:41.736Z,102302.59
2022-12-17T12:02:39.271Z,102308.78
2022-12-17T12:05:40.840Z,102301.94
2022-12-17T12:08:34.739Z,102301.47
2022-12-17T12:11:32.100Z,102303.03
2022-12-17T12:14:28.088Z,102306.16
2022-12-17T12:17:32.720Z,102304.59
2022-12-17T12:20:26.920Z,102309.44
2022-12-17T12:23:20.043Z,102304.41
2022-12-17T12:26:21.020Z,102305.03
2022-12-17T12:29:13.435Z,102314.44
2022-12-17T12:32:09.860Z,102319.13
2022-12-17T12:34:57.553Z,102329.56
2022-12-17T12:37:42.965Z,102329.25
2022-12-17T12:40:39.706Z,102331.06
2022-12-17T12:43:36.580Z,102331.22
2022-12-17T12:46:31.157Z,102346.09
2022-12-17T12:49:26.669Z,102345.63
2022-12-17T12:52:14.482Z,102346.78
2022-12-17T12:55:14.388Z,102352.19
2022-12-17T12:58:02.886Z,102352.97
2022-12-17T13:00:54.247Z,102350.00
2022-12-17T13:03:46.863Z,102365.84
2022-12-17T13:06:41.684Z,102367.09
2022-12-17T13:09:22.007Z,102359.69
2022-12-17T13:11:57.557Z,102365.09
2022-12-17T13:14:29.589Z,102373.16
2022-12-17T13:17:02.662Z,102364.53
2022-12-17T13:19:40.704Z,102368.56
2022-12-17T13:22:28.579Z,102365.53
2022-12-17T13:24:58.659Z,102366.44
2022-12-17T13:27:32.003Z,102359.22
2022-12-17T13:30:12.737Z,102361.00
2022-12-17T13:32:49.197Z,102363.81
2022-12-17T13:35:28.630Z,102364.41
2022-12-17T13:38:17.690Z,102369.56
2022-12-17T13:40:50.796Z,102375.50
2022-12-17T13:43:21.109Z,102388.03
2022-12-17T13:45:49.680Z,102382.53
2022-12-17T13:48:25.788Z,102389.63
2022-12-17T13:50:59.786Z,102386.13
2022-12-17T13:53:30.166Z,102397.31
2022-12-17T13:56:00.748Z,102400.94
2022-12-17T13:58:30.291Z,102400.28
2022-12-17T14:01:11.473Z,102406.03
2022-12-17T14:04:05.397Z,102413.38
2022-12-17T14:06:36.034Z,102405.38
2022-12-17T14:09:08.610Z,102413.28
2022-12-17T14:11:56.507Z,102407.34
2022-12-17T14:14:31.318Z,102412.41
2022-12-17T14:17:01.700Z,102423.13
2022-12-17T14:19:32.113Z,102423.03
2022-12-17T14:22:01.503Z,102422.47
2022-12-17T14:24:31.312Z,102434.06
2022-12-17T14:27:01.180Z,102422.00
2022-12-17T14:29:31.342Z,102427.31
2022-12-17T14:32:01.542Z,102427.66
2022-12-17T14:34:30.104Z,102424.03
2022-12-17T14:37:00.483Z,102426.91
2022-12-17T14:39:32.048Z,102427.63
2022-12-17T14:42:28.720Z,102430.94
2022-12-17T14:45:01.459Z,102429.53
2022-12-17T14:47:31.384Z,102426.97
2022-12-17T14:50:02.821Z,102433.22
2022-12-17T14:52:42.402Z,102436.41
2022-12-17T14:55:26.098Z,102445.88
2022-12-17T14:58:08.700Z,102454.03
2022-12-17T15:00:39.563Z,102466.16
2022-12-17T15:03:07.893Z,102461.22
2022-12-17T15:05:36.740Z,102454.72
2022-12-17T15:08:05.787Z,102452.50
2022-12-17T15:10:36.843Z,102454.47
2022-12-17T15:13:09.696Z,102461.59
2022-12-17T15:15:37.811Z,102459.75
2022-12-17T15:18:05.970Z,102456.34
2022-12-17T15:20:33.889Z,102457.97
2022-12-17T15:23:02.649Z,102473.44
2022-12-17T15:25:30.717Z,102474.63
2022-12-17T15:28:00.152Z,102480.69
2022-12-17T15:30:28.116Z,102482.19
2022-12-17T15:32:56.166Z,102478.91
2022-12-17T15:35:25.849Z,102485.97
2022-12-17T15:37:53.983Z,102501.88
2022-12-17T15:40:23.079Z,102498.19
2022-12-17T15:43:08.369Z,102503.91
2022-12-17T15:45:37.740Z,102500.06
2022-12-17T15:48:06.324Z,102501.66
2022-12-17T15:50:34.608Z,102496.00
2022-12-17T15:53:02.960Z,102503.66
2022-12-17T15:55:31.092Z,102501.06
2022-12-17T15:57:59.669Z,102506.13
2022-12-17T16:00:27.778Z,102502.97
2022-12-17T16:02:57.314Z,102508.97
2022-12-17T16:05:25.774Z,102507.88
2022-12-17T16:07:53.690Z,102511.06
2022-12-17T16:10:21.840Z,102517.09
2022-12-17T16:12:49.924Z,102509.13
2022-12-17T16:15:18.011Z,102511.50
2022-12-17T16:17:46.041Z,102515.84
2022-12-17T16:20:18.053Z,102513.88
2022-12-17T16:22:46.397Z,102514.44
2022-12-17T16:25:14.496Z,102516.66
2022-12-17T16:27:42.488Z,102508.28
2022-12-17T16:30:11.519Z,102518.84
2022-12-17T16:32:42.793Z,102523.94
2022-12-17T16:35:10.977Z,102519.47
2022-12-17T16:37:40.408Z,102520.78
2022-12-17T16:40:09.828Z,102529.59
2022-12-17T16:42:39.193Z,102528.31
2022-12-17T16:45:09.014Z,102525.06
2022-12-17T16:47:36.840Z,102529.41
2022-12-17T16:50:05.122Z,102537.00
2022-12-17T16:52:33.185Z,102536.31
2022-12-17T16:55:02.486Z,102537.38
2022-12-17T16:57:32.919Z,102538.53
2022-12-17T17:00:01.014Z,102540.91
2022-12-17T17:02:29.164Z,102536.72
2022-12-17T17:04:57.123Z,102537.69
2022-12-17T17:07:25.165Z,102538.00
2022-12-17T17:09:53.010Z,102536.78
2022-12-17T17:12:22.471Z,102548.03
2022-12-17T17:14:53.420Z,102550.19
2022-12-17T17:17:54.044Z,102549.63
2022-12-17T17:20:12.402Z,102545.66
2022-12-17T17:22:40.513Z,102545.31
2022-12-17T17:25:09.445Z,102551.50
2022-12-17T17:27:38.770Z,102556.97
2022-12-17T17:30:07.930Z,102560.78
2022-12-17T17:32:36.220Z,102563.13
2022-12-17T17:35:05.807Z,102563.44
2022-12-17T17:37:33.883Z,102562.59
2022-12-17T17:40:04.707Z,102571.91
2022-12-17T17:42:32.707Z,102575.84
2022-12-17T17:45:03.370Z,102586.25
2022-12-17T17:47:31.797Z,102584.03
2022-12-17T17:49:59.744Z,102576.44
2022-12-17T17:52:27.759Z,102582.25
2022-12-17T17:55:04.975Z,102585.50
2022-12-17T17:57:32.909Z,102584.56
2022-12-17T18:00:05.139Z,102576.63
2022-12-17T18:02:33.268Z,102581.38
2022-12-17T18:05:01.774Z,102584.28
2022-12-17T18:07:29.833Z,102581.34
2022-12-17T18:09:59.636Z,102584.47
2022-12-17T18:12:45.210Z,102586.44
2022-12-17T18:15:16.329Z,102593.88
2022-12-17T18:17:45.383Z,102598.22
2022-12-17T18:20:13.515Z,102590.25
2022-12-17T18:22:41.702Z,102601.88
2022-12-17T18:25:10.501Z,102602.78
2022-12-17T18:27:40.295Z,102595.31
2022-12-17T18:30:09.230Z,102592.09
2022-12-17T18:32:38.988Z,102602.97
2022-12-17T18:35:07.985Z,102591.69
2022-12-17T18:37:37.610Z,102606.25
2022-12-17T18:40:06.663Z,102610.25
2022-12-17T18:42:52.471Z,102611.50
2022-12-17T18:45:20.416Z,102614.03
2022-12-17T18:47:51.135Z,102608.41
2022-12-17T18:50:19.204Z,102617.69
2022-12-17T18:52:47.142Z,102620.03
2022-12-17T18:55:15.281Z,102620.44
2022-12-17T18:57:43.466Z,102624.97
2022-12-17T19:00:12.690Z,102624.25
2022-12-17T19:02:40.832Z,102625.88
2022-12-17T19:05:11.410Z,102635.31
2022-12-17T19:07:42.037Z,102638.25
2022-12-17T19:10:10.930Z,102648.78
2022-12-17T19:12:39.262Z,102651.47
2022-12-17T19:15:16.276Z,102651.13
2022-12-17T19:17:44.357Z,102649.13
2022-12-17T19:20:13.756Z,102660.19
2022-12-17T19:22:41.819Z,102664.38
2022-12-17T19:25:12.363Z,102658.94
2022-12-17T19:27:40.599Z,102657.84
2022-12-17T19:30:10.318Z,102659.66
2022-12-17T19:32:38.211Z,102668.91
2022-12-17T19:35:06.864Z,102657.47
2022-12-17T19:37:36.202Z,102667.28
2022-12-17T19:40:04.158Z,102666.91
2022-12-17T19:42:37.407Z,102672.91
2022-12-17T19:45:06.348Z,102671.47
2022-12-17T19:47:34.294Z,102674.19
2022-12-17T19:50:02.291Z,102678.53
2022-12-17T19:52:30.801Z,102694.53
2022-12-17T19:55:00.091Z,102695.59
2022-12-17T19:57:28.113Z,102688.34
2022-12-17T19:59:56.086Z,102686.16
2022-12-17T20:02:32.245Z,102691.25
2022-12-17T20:05:00.584Z,102689.03
2022-12-17T20:07:28.452Z,102696.13
2022-12-17T20:09:56.300Z,102699.75
2022-12-17T20:12:25.788Z,102697.06
2022-12-17T20:14:53.670Z,102702.50
2022-12-17T20:17:21.566Z,102711.13
2022-12-17T20:19:52.239Z,102715.53
2022-12-17T20:22:22.400Z,102715.53
2022-12-17T20:24:53.204Z,102722.38
2022-12-17T20:27:30.124Z,102723.13
2022-12-17T20:29:58.172Z,102711.44
2022-12-17T20:32:26.162Z,102719.50
2022-12-17T20:34:54.194Z,102724.03
2022-12-17T20:37:22.381Z,102719.50
2022-12-17T20:39:50.528Z,102716.97
2022-12-17T20:42:18.853Z,102724.66
2022-12-17T20:44:53.255Z,102725.41
2022-12-17T20:47:21.619Z,102731.94
2022-12-17T20:49:49.577Z,102740.81
2022-12-17T20:52:17.599Z,102738.97
2022-12-17T20:54:45.504Z,102734.47
2022-12-17T20:57:15.503Z,102731.56
2022-12-17T20:59:43.454Z,102735.97
2022-12-17T21:02:12.939Z,102740.38
2022-12-17T21:04:40.987Z,102737.03
2022-12-17T21:07:08.797Z,102748.03
2022-12-17T21:09:36.944Z,102747.78
2022-12-17T21:12:07.621Z,102743.22
2022-12-17T21:14:36.068Z,102739.59
2022-12-17T21:17:05.095Z,102735.59
2022-12-17T21:19:34.623Z,102738.47
2022-12-17T21:22:02.469Z,102740.66
2022-12-17T21:24:30.489Z,102738.88
2022-12-17T21:26:58.706Z,102752.13
2022-12-17T21:29:26.554Z,102747.94
2022-12-17T21:31:54.534Z,102757.34
2022-12-17T21:34:25.163Z,102764.63
2022-12-17T21:36:54.563Z,102760.94
2022-12-17T21:39:22.934Z,102770.72
2022-12-17T21:42:05.158Z,102754.84
2022-12-17T21:44:33.219Z,102764.84
2022-12-17T21:47:02.040Z,102771.63
2022-12-17T21:49:30.038Z,102766.53
2022-12-17T21:52:00.629Z,102764.03
2022-12-17T21:54:28.787Z,102780.09
2022-12-17T21:56:56.702Z,102780.22
2022-12-17T21:59:24.944Z,102782.06
2022-12-17T22:01:53.960Z,102787.34
2022-12-17T22:04:22.238Z,102784.63
2022-12-17T22:06:51.858Z,102780.69
2022-12-17T22:09:44.400Z,102783.94
2022-12-17T22:12:39.291Z,102782.06
2022-12-17T22:15:10.996Z,102782.81
2022-12-17T22:17:40.180Z,102782.22
2022-12-17T22:20:09.562Z,102780.94
2022-12-17T22:22:37.664Z,102793.84
2022-12-17T22:25:08.482Z,102793.50
2022-12-17T22:27:39.477Z,102805.91
2022-12-17T22:30:26.483Z,102809.69
2022-12-17T22:33:00.650Z,102804.25
2022-12-17T22:37:09.333Z,102802.66
2022-12-17T22:43:11.651Z,102807.97
2022-12-17T22:44:37.448Z,102812.44
2022-12-17T22:44:51.175Z,102824.56
2022-12-17T22:47:08.631Z,102828.47
2022-12-17T22:49:36.727Z,102826.78
2022-12-17T22:52:04.830Z,102836.97
2022-12-17T22:54:33.759Z,102834.22
2022-12-17T22:57:34.627Z,102843.03
2022-12-17T22:59:51.732Z,102845.66
2022-12-17T23:02:23.474Z,102844.47
2022-12-17T23:04:51.391Z,102843.16
2022-12-17T23:07:19.250Z,102847.59
2022-12-17T23:09:47.068Z,102854.00
2022-12-17T23:12:33.617Z,102849.50
2022-12-17T23:15:01.676Z,102850.31
2022-12-17T23:17:29.564Z,102842.47
2022-12-17T23:19:57.437Z,102846.94
2022-12-17T23:22:25.372Z,102849.41
2022-12-17T23:24:53.309Z,102853.38
2022-12-17T23:27:22.508Z,102855.31
2022-12-17T23:29:50.594Z,102853.63
2022-12-17T23:32:18.391Z,102859.81
2022-12-17T23:34:46.224Z,102862.03
2022-12-17T23:37:14.119Z,102858.19
2022-12-17T23:39:41.917Z,102855.31
2022-12-17T23:42:09.702Z,102849.72
2022-12-17T23:44:38.893Z,102846.94
2022-12-17T23:47:06.750Z,102856.44
2022-12-17T23:49:34.744Z,102859.69
2022-12-17T23:52:02.666Z,102846.81
2022-12-17T23:54:30.643Z,102868.78
2022-12-17T23:56:58.498Z,102866.84
2022-12-17T23:59:26.370Z,102872.13
